createdAt,value
2023-02-15T00:00:14.300Z,24.80
2023-02-15T00:02:20.916Z,24.50
2023-02-15T00:04:47.389Z,24.27
2023-02-15T00:06:52.798Z,21.58
2023-02-15T00:11:10.366Z,26.23
2023-02-15T00:13:15.144Z,24.80
2023-02-15T00:15:20.209Z,23.80
2023-02-15T00:17:25.236Z,22.55
2023-02-15T00:19:32.792Z,23.65
2023-02-15T00:21:39.413Z,24.85
2023-02-15T00:23:44.192Z,25.17
2023-02-15T00:25:48.989Z,22.95
2023-02-15T00:27:53.810Z,23.85
2023-02-15T00:29:58.595Z,24.55
2023-02-15T00:32:03.552Z,23.00
2023-02-15T00:34:10.395Z,25.08
2023-02-15T00:36:18.071Z,21.80
2023-02-15T00:38:22.935Z,22.70
2023-02-15T00:42:33.440Z,23.08
2023-02-15T00:46:43.323Z,20.13
2023-02-15T00:48:48.160Z,20.80
2023-02-15T00:50:55.749Z,22.77
2023-02-15T00:53:03.189Z,22.65
2023-02-15T00:55:09.977Z,22.65
2023-02-15T00:57:14.966Z,23.30
2023-02-15T00:59:19.721Z,19.23
2023-02-15T01:01:26.975Z,20.38
2023-02-15T01:03:31.887Z,21.70
2023-02-15T01:05:36.790Z,21.38
2023-02-15T01:07:42.561Z,24.58
2023-02-15T01:09:50.494Z,22.95
2023-02-15T01:11:55.250Z,22.02
2023-02-15T01:14:01.648Z,18.73
2023-02-15T01:16:07.850Z,20.17
2023-02-15T01:18:13.057Z,18.02
2023-02-15T01:22:23.323Z,20.15
2023-02-15T01:24:28.176Z,19.83
2023-02-15T01:26:35.590Z,20.77
2023-02-15T01:28:40.785Z,18.38
2023-02-15T01:30:45.764Z,19.95
2023-02-15T01:32:50.564Z,20.40
2023-02-15T01:34:55.476Z,18.88
2023-02-15T01:37:00.381Z,19.95
2023-02-15T01:39:05.441Z,18.60
2023-02-15T01:41:23.270Z,17.73
2023-02-15T01:43:45.384Z,18.85
2023-02-15T01:45:53.710Z,20.08
2023-02-15T01:48:03.394Z,20.40
2023-02-15T01:50:13.936Z,18.13
2023-02-15T01:52:21.524Z,17.90
2023-02-15T01:54:31.359Z,18.42
2023-02-15T01:56:38.951Z,19.40
2023-02-15T01:58:48.164Z,21.00
2023-02-15T02:00:55.097Z,19.67
2023-02-15T02:03:00.904Z,19.30
2023-02-15T02:05:09.657Z,20.67
2023-02-15T02:07:18.186Z,22.98
2023-02-15T02:09:23.082Z,22.90
2023-02-15T02:11:28.549Z,21.13
2023-02-15T02:13:33.524Z,20.13
2023-02-15T02:15:48.126Z,21.35
2023-02-15T02:18:07.055Z,19.40
2023-02-15T02:20:29.738Z,19.55
2023-02-15T02:23:04.524Z,21.08
2023-02-15T02:25:36.435Z,20.00
2023-02-15T02:27:45.229Z,16.95
2023-02-15T02:30:23.528Z,20.23
2023-02-15T02:32:59.993Z,23.00
2023-02-15T02:35:12.891Z,21.70
2023-02-15T02:37:27.339Z,19.83
2023-02-15T02:39:41.385Z,18.25
2023-02-15T02:41:59.879Z,19.08
2023-02-15T02:44:12.701Z,21.75
2023-02-15T02:46:23.684Z,23.40
2023-02-15T02:48:31.784Z,23.42
2023-02-15T02:50:39.328Z,22.73
2023-02-15T02:52:46.111Z,24.30
2023-02-15T02:54:50.943Z,24.20
2023-02-15T02:56:59.909Z,21.08
2023-02-15T02:59:10.406Z,21.10
2023-02-15T03:01:20.528Z,19.25
2023-02-15T03:03:31.383Z,19.92
2023-02-15T03:05:43.203Z,20.60
2023-02-15T03:07:53.757Z,20.05
2023-02-15T03:10:01.322Z,18.38
2023-02-15T03:12:07.027Z,21.88
2023-02-15T03:14:19.561Z,20.33
2023-02-15T03:16:28.386Z,19.33
2023-02-15T03:18:38.445Z,20.30
2023-02-15T03:20:46.900Z,22.08
2023-02-15T03:22:56.911Z,24.65
2023-02-15T03:25:06.096Z,22.90
2023-02-15T03:27:18.740Z,22.10
2023-02-15T03:29:27.877Z,20.40
2023-02-15T03:31:36.231Z,19.15
2023-02-15T03:33:45.984Z,17.95
2023-02-15T03:36:00.607Z,18.42
2023-02-15T03:38:08.271Z,17.13
2023-02-15T03:40:32.006Z,16.70
2023-02-15T03:42:42.527Z,18.45
2023-02-15T03:44:54.857Z,18.48
2023-02-15T03:47:08.100Z,17.48
2023-02-15T03:49:18.820Z,16.65
2023-02-15T03:51:37.292Z,16.70
2023-02-15T03:53:43.953Z,16.58
2023-02-15T03:55:50.416Z,16.02
2023-02-15T03:58:08.060Z,14.73
2023-02-15T04:00:30.154Z,15.70
2023-02-15T04:02:41.144Z,16.67
2023-02-15T04:04:48.960Z,19.08
2023-02-15T04:06:56.491Z,19.20
2023-02-15T04:09:13.717Z,15.45
2023-02-15T04:11:18.658Z,18.73
2023-02-15T04:13:23.947Z,13.93
2023-02-15T04:15:41.282Z,17.50
2023-02-15T04:17:46.140Z,16.45
2023-02-15T04:20:03.512Z,15.77
2023-02-15T04:22:23.365Z,15.60
2023-02-15T04:24:40.708Z,19.52
2023-02-15T04:26:45.497Z,18.35
2023-02-15T04:28:50.329Z,15.30
2023-02-15T04:30:55.319Z,18.17
2023-02-15T04:33:00.345Z,18.08
2023-02-15T04:35:05.205Z,17.98
2023-02-15T04:37:12.602Z,17.15
2023-02-15T04:39:18.347Z,18.33
2023-02-15T04:41:23.327Z,17.20
2023-02-15T04:43:28.121Z,19.40
2023-02-15T04:45:33.074Z,15.55
2023-02-15T04:47:38.693Z,17.25
2023-02-15T04:49:43.531Z,18.88
2023-02-15T04:51:48.327Z,17.35
2023-02-15T04:53:57.086Z,18.73
2023-02-15T04:56:02.098Z,17.75
2023-02-15T05:00:12.897Z,15.90
2023-02-15T05:02:17.744Z,18.33
2023-02-15T05:04:22.772Z,16.95
2023-02-15T05:08:32.500Z,20.35
2023-02-15T05:10:39.917Z,19.08
2023-02-15T05:12:44.776Z,20.08
2023-02-15T05:14:49.624Z,17.40
2023-02-15T05:16:56.667Z,16.85
2023-02-15T05:19:01.533Z,17.40
2023-02-15T05:21:06.684Z,16.80
2023-02-15T05:25:28.627Z,19.05
2023-02-15T05:27:48.541Z,22.73
2023-02-15T05:29:56.026Z,19.45
2023-02-15T05:32:01.420Z,19.90
2023-02-15T05:36:11.868Z,19.63
2023-02-15T05:38:16.888Z,21.75
2023-02-15T05:40:22.072Z,21.63
2023-02-15T05:44:34.045Z,21.15
2023-02-15T05:46:39.093Z,25.20
2023-02-15T05:48:44.047Z,21.35
2023-02-15T05:50:49.622Z,22.90
2023-02-15T05:52:57.036Z,20.67
2023-02-15T05:55:03.446Z,22.48
2023-02-15T05:57:08.294Z,20.38
2023-02-15T05:59:13.805Z,21.98
2023-02-15T06:01:23.613Z,24.27
2023-02-15T06:03:29.896Z,24.55
2023-02-15T06:05:34.790Z,23.42
2023-02-15T06:07:39.685Z,24.30
2023-02-15T06:09:44.572Z,25.58
2023-02-15T06:11:49.498Z,21.27
2023-02-15T06:13:55.666Z,22.75
2023-02-15T06:16:00.858Z,21.77
2023-02-15T06:18:08.622Z,21.70
2023-02-15T06:20:14.203Z,20.55
2023-02-15T06:22:19.026Z,21.80
2023-02-15T06:24:23.863Z,23.05
2023-02-15T06:26:28.908Z,22.23
2023-02-15T06:28:33.809Z,22.15
2023-02-15T06:30:38.664Z,23.08
2023-02-15T06:32:44.027Z,21.50
2023-02-15T06:34:51.426Z,22.23
2023-02-15T06:36:56.282Z,21.92
2023-02-15T06:39:01.236Z,24.00
2023-02-15T06:41:06.362Z,25.10
2023-02-15T06:45:15.966Z,25.05
2023-02-15T06:47:20.846Z,22.98
2023-02-15T06:49:25.677Z,23.17
2023-02-15T06:51:35.024Z,23.17
2023-02-15T06:53:42.704Z,25.30
2023-02-15T06:55:47.566Z,25.48
2023-02-15T06:57:52.343Z,25.58
2023-02-15T06:59:59.539Z,27.13
2023-02-15T07:02:04.579Z,23.90
2023-02-15T07:04:09.416Z,25.55
2023-02-15T07:06:14.864Z,23.92
2023-02-15T07:08:22.369Z,22.88
2023-02-15T07:10:27.236Z,24.30
2023-02-15T07:12:45.356Z,27.13
2023-02-15T07:14:50.308Z,24.23
2023-02-15T07:16:55.087Z,24.55
2023-02-15T07:18:59.922Z,26.25
2023-02-15T07:21:04.911Z,23.30
2023-02-15T07:23:09.724Z,22.02
2023-02-15T07:25:18.002Z,23.20
2023-02-15T07:27:23.257Z,21.77
2023-02-15T07:29:28.322Z,24.48
2023-02-15T07:31:33.709Z,22.70
2023-02-15T07:33:38.790Z,23.00
2023-02-15T07:35:50.554Z,24.70
2023-02-15T07:37:55.617Z,23.38
2023-02-15T07:40:00.393Z,27.00
2023-02-15T07:42:07.820Z,24.90
2023-02-15T07:44:15.515Z,26.23
2023-02-15T07:46:21.974Z,23.90
2023-02-15T07:48:27.575Z,22.35
2023-02-15T07:50:33.510Z,22.92
2023-02-15T07:52:39.034Z,24.63
2023-02-15T07:54:44.398Z,24.63
2023-02-15T07:56:49.268Z,23.35
2023-02-15T07:58:56.803Z,22.58
2023-02-15T08:01:05.144Z,26.40
2023-02-15T08:03:19.112Z,20.05
2023-02-15T08:05:24.197Z,23.48
2023-02-15T08:07:29.033Z,19.90
2023-02-15T08:09:33.903Z,23.98
2023-02-15T08:11:41.022Z,20.75
2023-02-15T08:13:54.802Z,19.60
2023-02-15T08:16:02.542Z,21.75
2023-02-15T08:18:07.630Z,21.80
2023-02-15T08:20:14.498Z,19.67
2023-02-15T08:22:19.422Z,21.83
2023-02-15T08:24:26.572Z,23.23
2023-02-15T08:26:32.828Z,21.25
2023-02-15T08:28:39.795Z,22.80
2023-02-15T08:30:44.819Z,22.60
2023-02-15T08:32:52.266Z,21.42
2023-02-15T08:34:59.911Z,22.13
2023-02-15T08:37:04.776Z,21.58
2023-02-15T08:39:10.301Z,21.40
2023-02-15T08:41:17.857Z,22.40
2023-02-15T08:43:23.430Z,24.65
2023-02-15T08:45:28.369Z,21.58
2023-02-15T08:47:33.290Z,20.85
2023-02-15T08:49:40.709Z,21.90
2023-02-15T08:51:48.882Z,21.08
2023-02-15T08:53:56.204Z,22.60
2023-02-15T08:56:01.273Z,20.52
2023-02-15T09:00:13.003Z,21.05
2023-02-15T09:02:17.826Z,21.33
2023-02-15T09:04:23.727Z,22.83
2023-02-15T09:06:32.995Z,22.38
2023-02-15T09:08:37.800Z,23.58
2023-02-15T09:10:42.749Z,26.88
2023-02-15T09:12:47.484Z,24.40
2023-02-15T09:14:52.300Z,26.55
2023-02-15T09:16:59.067Z,23.30
2023-02-15T09:19:05.773Z,25.05
2023-02-15T09:21:14.608Z,24.27
2023-02-15T09:23:27.054Z,25.65
2023-02-15T09:25:32.180Z,21.10
2023-02-15T09:27:37.564Z,21.60
2023-02-15T09:29:42.435Z,22.40
2023-02-15T09:31:49.936Z,20.90
2023-02-15T09:33:55.415Z,23.48
2023-02-15T09:36:00.748Z,21.63
2023-02-15T09:38:05.623Z,21.73
2023-02-15T09:40:19.724Z,22.45
2023-02-15T09:42:53.817Z,22.75
2023-02-15T09:45:12.430Z,23.40
2023-02-15T09:47:41.611Z,23.52
2023-02-15T09:49:53.019Z,21.02
2023-02-15T09:52:31.408Z,22.73
2023-02-15T09:54:56.420Z,24.48
2023-02-15T09:57:11.411Z,22.13
2023-02-15T09:59:23.154Z,24.33
2023-02-15T10:01:40.314Z,22.20
2023-02-15T10:04:03.777Z,18.23
2023-02-15T10:06:36.599Z,20.92
2023-02-15T10:09:07.636Z,22.05
2023-02-15T10:11:31.942Z,22.77
2023-02-15T10:13:48.693Z,22.83
2023-02-15T10:16:09.563Z,23.75
2023-02-15T10:18:26.244Z,22.58
2023-02-15T10:20:39.292Z,21.85
2023-02-15T10:22:56.512Z,22.92
2023-02-15T10:25:17.799Z,25.95
2023-02-15T10:27:24.272Z,25.48
2023-02-15T10:29:39.954Z,22.98
2023-02-15T10:34:08.221Z,26.58
2023-02-15T10:36:30.891Z,22.98
2023-02-15T10:38:43.537Z,23.65
2023-02-15T10:41:02.183Z,26.80
2023-02-15T10:43:30.410Z,20.05
2023-02-15T10:45:48.074Z,24.90
2023-02-15T10:48:05.651Z,24.02
2023-02-15T10:50:30.236Z,23.75
2023-02-15T10:52:50.174Z,20.70
2023-02-15T10:55:04.257Z,23.85
2023-02-15T10:57:18.978Z,24.20
2023-02-15T10:59:36.124Z,25.70
2023-02-15T11:01:48.312Z,25.40
2023-02-15T11:04:12.140Z,21.98
2023-02-15T11:06:20.965Z,22.55
2023-02-15T11:08:30.320Z,21.35
2023-02-15T11:10:40.298Z,23.67
2023-02-15T11:12:48.311Z,26.38
2023-02-15T11:14:59.068Z,20.73
2023-02-15T11:17:12.626Z,21.58
2023-02-15T11:19:25.674Z,22.50
2023-02-15T11:21:37.926Z,24.10
2023-02-15T11:23:46.957Z,21.23
2023-02-15T11:26:00.056Z,18.90
2023-02-15T11:28:10.077Z,19.92
2023-02-15T11:30:18.331Z,19.15
2023-02-15T11:32:28.959Z,21.10
2023-02-15T11:34:38.645Z,20.73
2023-02-15T11:36:45.542Z,21.45
2023-02-15T11:38:54.936Z,21.63
2023-02-15T11:41:04.837Z,19.77
2023-02-15T11:43:18.639Z,18.55
2023-02-15T11:45:31.569Z,20.30
2023-02-15T11:47:39.077Z,22.13
2023-02-15T11:49:43.996Z,18.65
2023-02-15T11:51:51.737Z,18.63
2023-02-15T11:53:56.966Z,18.90
2023-02-15T11:58:12.530Z,18.50
2023-02-15T12:00:27.082Z,20.25
2023-02-15T12:02:35.405Z,20.33
2023-02-15T12:04:47.201Z,22.63
2023-02-15T12:07:02.296Z,21.10
2023-02-15T12:09:30.256Z,19.50
2023-02-15T12:11:39.133Z,20.65
2023-02-15T12:13:59.247Z,23.27
2023-02-15T12:16:11.753Z,21.60
2023-02-15T12:18:30.360Z,21.08
2023-02-15T12:20:41.169Z,21.70
2023-02-15T12:22:55.196Z,21.27
2023-02-15T12:25:03.559Z,23.17
2023-02-15T12:27:17.650Z,19.90
2023-02-15T12:29:33.550Z,25.95
2023-02-15T12:33:47.648Z,27.08
2023-02-15T12:36:01.880Z,24.90
2023-02-15T12:38:23.255Z,27.90
2023-02-15T12:40:31.603Z,25.17
2023-02-15T12:42:47.035Z,23.17
2023-02-15T12:45:06.313Z,23.45
2023-02-15T12:47:28.937Z,24.40
2023-02-15T12:49:35.710Z,24.38
2023-02-15T12:51:54.172Z,23.80
2023-02-15T12:54:02.058Z,27.85
2023-02-15T12:56:09.127Z,27.33
2023-02-15T12:58:21.704Z,26.90
2023-02-15T13:00:33.113Z,23.63
2023-02-15T13:02:45.730Z,28.17
2023-02-15T13:04:55.549Z,25.48
2023-02-15T13:07:06.469Z,24.60
2023-02-15T13:09:19.646Z,26.77
2023-02-15T13:11:31.113Z,30.30
2023-02-15T13:13:39.539Z,29.92
2023-02-15T13:15:48.309Z,29.92
2023-02-15T13:17:54.611Z,31.27
2023-02-15T13:20:01.483Z,30.55
2023-02-15T13:22:14.296Z,31.20
2023-02-15T13:24:24.683Z,29.70
2023-02-15T13:26:33.615Z,30.48
2023-02-15T13:28:43.663Z,29.10
2023-02-15T13:30:51.658Z,28.83
2023-02-15T13:32:59.803Z,30.77
2023-02-15T13:35:08.214Z,26.45
2023-02-15T13:37:23.232Z,34.55
2023-02-15T13:39:34.518Z,25.53
2023-02-15T13:41:54.647Z,27.48
2023-02-15T13:44:08.467Z,29.92
2023-02-15T13:46:26.398Z,27.20
2023-02-15T13:48:50.317Z,28.75
2023-02-15T13:51:06.608Z,32.92
2023-02-15T13:53:39.868Z,33.78
2023-02-15T13:55:50.981Z,35.33
2023-02-15T13:58:16.879Z,31.15
2023-02-15T14:00:26.667Z,29.95
2023-02-15T14:02:48.493Z,28.73
2023-02-15T14:05:05.990Z,29.23
2023-02-15T14:07:24.881Z,30.48
2023-02-15T14:09:44.947Z,27.98
2023-02-15T14:11:58.929Z,31.58
2023-02-15T14:14:41.738Z,27.33
2023-02-15T14:17:06.552Z,30.80
2023-02-15T14:19:24.132Z,28.93
2023-02-15T14:21:34.431Z,31.02
2023-02-15T14:24:01.676Z,29.00
2023-02-15T14:26:13.528Z,29.77
2023-02-15T14:28:24.835Z,29.85
2023-02-15T14:30:33.592Z,26.98
2023-02-15T14:32:44.925Z,27.83
2023-02-15T14:34:56.755Z,29.10
2023-02-15T14:37:02.022Z,28.90
2023-02-15T14:41:49.755Z,32.40
2023-02-15T14:44:05.656Z,31.25
2023-02-15T14:48:30.158Z,29.75
2023-02-15T14:50:50.268Z,29.77
2023-02-15T14:53:28.723Z,32.92
2023-02-15T14:55:39.168Z,29.42
2023-02-15T14:58:00.584Z,29.13
2023-02-15T15:00:21.637Z,28.45
2023-02-15T15:02:29.832Z,27.27
2023-02-15T15:04:39.010Z,31.88
2023-02-15T15:06:47.258Z,35.15
2023-02-15T15:08:56.803Z,30.77
2023-02-15T15:11:43.425Z,30.80
2023-02-15T15:14:06.770Z,31.48
2023-02-15T15:16:44.281Z,26.48
2023-02-15T15:18:51.200Z,28.77
2023-02-15T15:20:55.991Z,29.30
2023-02-15T15:23:30.656Z,25.55
2023-02-15T15:25:46.408Z,29.35
2023-02-15T15:30:03.375Z,32.92
2023-02-15T15:32:16.048Z,31.85
2023-02-15T15:34:37.394Z,28.55
2023-02-15T15:37:08.178Z,27.33
2023-02-15T15:39:32.468Z,29.38
2023-02-15T15:41:45.945Z,31.40
2023-02-15T15:44:14.806Z,30.50
2023-02-15T15:46:51.411Z,30.55
2023-02-15T15:48:56.638Z,32.17
2023-02-15T15:53:09.010Z,35.15
2023-02-15T15:55:21.033Z,38.65
2023-02-15T15:57:32.607Z,32.58
2023-02-15T15:59:38.273Z,34.00
2023-02-15T16:01:48.162Z,41.45
2023-02-15T16:03:57.401Z,33.70
2023-02-15T16:06:03.393Z,35.80
2023-02-15T16:08:09.086Z,31.70
2023-02-15T16:10:25.178Z,36.72
2023-02-15T16:12:32.405Z,38.83
2023-02-15T16:14:41.150Z,34.70
2023-02-15T16:16:52.357Z,32.72
2023-02-15T16:18:58.873Z,34.13
2023-02-15T16:21:05.250Z,38.38
2023-02-15T16:23:35.771Z,35.88
2023-02-15T16:25:56.477Z,34.30
2023-02-15T16:28:09.301Z,36.20
2023-02-15T16:30:29.928Z,34.72
2023-02-15T16:32:38.642Z,35.78
2023-02-15T16:34:57.938Z,32.60
2023-02-15T16:37:18.356Z,32.38
2023-02-15T16:39:24.371Z,36.60
2023-02-15T16:41:31.446Z,38.00
2023-02-15T16:43:36.704Z,35.15
2023-02-15T16:47:53.917Z,33.92
2023-02-15T16:50:01.539Z,35.83
2023-02-15T16:52:11.036Z,36.75
2023-02-15T16:54:23.021Z,37.28
2023-02-15T16:56:30.150Z,33.25
2023-02-15T16:58:41.455Z,41.20
2023-02-15T17:00:46.896Z,37.17
2023-02-15T17:03:07.562Z,35.78
2023-02-15T17:05:21.928Z,37.83
2023-02-15T17:07:26.804Z,36.92
2023-02-15T17:09:31.641Z,34.17
2023-02-15T17:11:39.785Z,35.42
2023-02-15T17:14:24.552Z,34.92
2023-02-15T17:16:34.544Z,35.35
2023-02-15T17:18:48.815Z,34.97
2023-02-15T17:20:55.965Z,38.75
2023-02-15T17:23:01.210Z,37.90
2023-02-15T17:25:09.129Z,37.85
2023-02-15T17:27:20.399Z,38.17
2023-02-15T17:29:31.612Z,40.55
2023-02-15T17:31:37.149Z,37.67
2023-02-15T17:33:44.768Z,38.95
2023-02-15T17:36:07.164Z,41.33
2023-02-15T17:38:22.430Z,43.33
2023-02-15T17:40:29.441Z,39.58
2023-02-15T17:42:34.251Z,42.33
2023-02-15T17:44:39.117Z,41.45
2023-02-15T17:46:44.285Z,42.70
2023-02-15T17:51:01.449Z,42.70
2023-02-15T17:53:06.661Z,41.42
2023-02-15T17:55:30.203Z,43.20
2023-02-15T17:57:36.495Z,44.72
2023-02-15T17:59:53.781Z,43.92
2023-02-15T18:02:11.057Z,40.35
2023-02-15T18:04:31.248Z,43.28
2023-02-15T18:06:50.045Z,43.70
2023-02-15T18:09:07.393Z,44.88
2023-02-15T18:11:25.619Z,47.00
2023-02-15T18:13:30.472Z,46.80
2023-02-15T18:15:35.452Z,44.95
2023-02-15T18:19:49.898Z,46.72
2023-02-15T18:21:57.763Z,43.63
2023-02-15T18:24:02.994Z,42.47
2023-02-15T18:26:08.362Z,49.75
2023-02-15T18:28:13.349Z,48.53
2023-02-15T18:30:21.534Z,47.78
2023-02-15T18:32:35.389Z,46.42
2023-02-15T18:34:42.647Z,48.00
2023-02-15T18:36:50.181Z,49.95
2023-02-15T18:38:55.701Z,48.75
2023-02-15T18:41:00.722Z,52.30
2023-02-15T18:43:05.822Z,45.35
2023-02-15T18:45:18.607Z,46.08
2023-02-15T18:47:23.478Z,47.42
2023-02-15T18:49:28.285Z,49.72
2023-02-15T18:51:39.907Z,46.92
2023-02-15T18:53:48.001Z,53.45
2023-02-15T18:55:55.745Z,47.03
2023-02-15T18:58:01.246Z,52.65
2023-02-15T19:00:08.914Z,50.45
2023-02-15T19:02:17.155Z,52.10
2023-02-15T19:04:24.235Z,46.40
2023-02-15T19:06:32.258Z,50.97
2023-02-15T19:08:37.860Z,47.95
2023-02-15T19:10:45.599Z,48.05
2023-02-15T19:12:51.250Z,48.70
2023-02-15T19:14:56.856Z,54.40
2023-02-15T19:17:03.067Z,53.13
2023-02-15T19:19:07.834Z,54.70
2023-02-15T19:21:19.019Z,51.60
2023-02-15T19:23:32.834Z,52.70
2023-02-15T19:25:40.414Z,55.45
2023-02-15T19:27:48.789Z,53.00
2023-02-15T19:29:54.212Z,52.97
2023-02-15T19:31:59.870Z,54.80
2023-02-15T19:34:04.746Z,62.47
2023-02-15T19:36:17.633Z,63.08
2023-02-15T19:38:25.328Z,55.28
2023-02-15T19:40:32.168Z,54.40
2023-02-15T19:42:37.142Z,50.83
2023-02-15T19:44:44.553Z,56.30
2023-02-15T19:46:49.610Z,50.00
2023-02-15T19:48:56.370Z,48.28
2023-02-15T19:51:01.346Z,53.22
2023-02-15T19:53:06.454Z,49.70
2023-02-15T19:57:23.768Z,48.60
2023-02-15T19:59:31.034Z,48.97
2023-02-15T20:01:39.740Z,49.88
2023-02-15T20:03:44.602Z,48.60
2023-02-15T20:05:49.647Z,45.45
2023-02-15T20:10:00.038Z,43.10
2023-02-15T20:12:04.891Z,47.58
2023-02-15T20:14:14.718Z,47.55
2023-02-15T20:16:20.250Z,50.72
2023-02-15T20:18:27.930Z,45.58
2023-02-15T20:20:40.372Z,48.20
2023-02-15T20:22:47.038Z,46.22
2023-02-15T20:24:52.104Z,46.88
2023-02-15T20:27:01.028Z,46.63
2023-02-15T20:29:10.337Z,47.05
2023-02-15T20:31:17.830Z,50.33
2023-02-15T20:33:23.903Z,46.45
2023-02-15T20:35:34.536Z,46.53
2023-02-15T20:37:39.380Z,45.20
2023-02-15T20:39:44.168Z,48.03
2023-02-15T20:41:50.406Z,49.88
2023-02-15T20:43:55.464Z,43.03
2023-02-15T20:46:00.457Z,45.55
2023-02-15T20:48:05.331Z,45.92
2023-02-15T20:50:10.795Z,45.25
2023-02-15T20:52:23.075Z,44.78
2023-02-15T20:54:29.301Z,47.72
2023-02-15T20:56:34.885Z,49.33
2023-02-15T20:58:41.872Z,47.55
2023-02-15T21:00:46.765Z,44.83
2023-02-15T21:02:52.518Z,46.55
2023-02-15T21:05:01.608Z,45.35
2023-02-15T21:07:06.520Z,40.17
2023-02-15T21:09:16.355Z,48.05
2023-02-15T21:11:23.868Z,45.65
2023-02-15T21:13:32.406Z,45.00
2023-02-15T21:15:39.915Z,44.13
2023-02-15T21:17:44.883Z,42.75
2023-02-15T21:19:49.682Z,40.22
2023-02-15T21:21:55.967Z,47.92
2023-02-15T21:24:00.942Z,49.90
2023-02-15T21:26:09.894Z,49.53
2023-02-15T21:28:21.128Z,47.75
2023-02-15T21:30:27.522Z,47.08
2023-02-15T21:32:32.485Z,50.13
2023-02-15T21:34:37.506Z,48.80
2023-02-15T21:36:43.845Z,50.00
2023-02-15T21:38:49.636Z,46.85
2023-02-15T21:40:55.193Z,46.63
2023-02-15T21:43:15.483Z,48.20
2023-02-15T21:45:37.477Z,45.00
2023-02-15T21:47:54.006Z,45.30
2023-02-15T21:50:18.847Z,46.10
2023-02-15T21:52:24.080Z,43.53
2023-02-15T21:54:29.855Z,44.75
2023-02-15T21:56:34.851Z,46.45
2023-02-15T21:58:42.421Z,44.67
2023-02-15T22:00:47.322Z,40.35
2023-02-15T22:02:57.104Z,40.30
2023-02-15T22:05:02.240Z,42.40
2023-02-15T22:07:07.123Z,46.25
2023-02-15T22:09:18.298Z,44.53
2023-02-15T22:11:24.863Z,38.10
2023-02-15T22:13:32.147Z,37.60
2023-02-15T22:15:41.895Z,42.17
2023-02-15T22:17:46.683Z,41.83
2023-02-15T22:19:52.705Z,38.35
2023-02-15T22:21:59.572Z,41.30
2023-02-15T22:24:04.460Z,41.08
2023-02-15T22:26:14.385Z,42.15
2023-02-15T22:28:19.456Z,41.25
2023-02-15T22:30:29.599Z,42.72
2023-02-15T22:32:37.294Z,46.05
2023-02-15T22:34:42.166Z,40.70
2023-02-15T22:36:46.946Z,46.63
2023-02-15T22:38:51.859Z,48.28
2023-02-15T22:41:03.368Z,38.75
2023-02-15T22:43:08.934Z,41.35
2023-02-15T22:45:19.659Z,38.78
2023-02-15T22:47:27.011Z,39.92
2023-02-15T22:49:34.631Z,42.08
2023-02-15T22:51:39.426Z,37.85
2023-02-15T22:53:44.289Z,45.38
2023-02-15T22:55:50.150Z,39.83
2023-02-15T22:57:58.143Z,40.10
2023-02-15T23:00:03.488Z,36.40
2023-02-15T23:02:08.452Z,38.25
2023-02-15T23:04:19.629Z,39.63
2023-02-15T23:06:27.090Z,38.15
2023-02-15T23:08:34.159Z,38.28
2023-02-15T23:10:39.061Z,37.70
2023-02-15T23:12:58.106Z,37.28
2023-02-15T23:15:03.124Z,34.85
2023-02-15T23:17:07.955Z,34.38
2023-02-15T23:19:15.487Z,37.22
2023-02-15T23:21:23.364Z,39.17
2023-02-15T23:23:36.610Z,43.42
2023-02-15T23:25:41.505Z,36.38
2023-02-15T23:28:01.637Z,37.88
2023-02-15T23:30:08.687Z,37.08
2023-02-15T23:32:16.220Z,37.58
2023-02-15T23:34:24.862Z,37.15
2023-02-15T23:36:33.498Z,35.63
2023-02-15T23:38:40.899Z,39.65
2023-02-15T23:40:58.817Z,38.50
2023-02-15T23:43:03.780Z,38.15
2023-02-15T23:45:21.178Z,39.33
2023-02-15T23:47:42.130Z,38.17
2023-02-15T23:49:46.967Z,36.05
2023-02-15T23:51:56.437Z,38.30
2023-02-15T23:54:03.807Z,40.20
2023-02-15T23:56:09.417Z,38.63
2023-02-15T23:58:19.088Z,39.03
